createdAt,value
2018-12-27T00:02:17.367Z,6.3
2018-12-27T00:05:17.122Z,5.9
2018-12-27T00:08:17.138Z,5.8
2018-12-27T00:11:17.435Z,6
2018-12-27T00:14:17.178Z,5.9
2018-12-27T00:17:17.328Z,6.1
2018-12-27T00:20:18.190Z,6.2
2018-12-27T00:23:17.303Z,6
2018-12-27T00:26:17.286Z,6.3
2018-12-27T00:29:17.509Z,6.3
2018-12-27T00:32:17.429Z,6.1
2018-12-27T00:35:17.620Z,6.4
2018-12-27T00:38:17.748Z,6.4
2018-12-27T00:41:17.026Z,6.2
2018-12-27T00:44:17.810Z,6.3
2018-12-27T00:47:17.618Z,6.6
2018-12-27T00:50:17.339Z,6.8
2018-12-27T00:53:17.472Z,6
2018-12-27T00:56:17.641Z,6.2
2018-12-27T00:59:17.405Z,6.6
2018-12-27T01:02:17.318Z,6
2018-12-27T01:05:17.295Z,7
2018-12-27T01:08:16.940Z,6.2
2018-12-27T01:11:17.026Z,6
2018-12-27T01:14:17.086Z,6.2
2018-12-27T01:17:17.194Z,6.2
2018-12-27T01:20:17.454Z,6.2
2018-12-27T01:23:18.040Z,6.1
2018-12-27T01:26:17.139Z,6.8
2018-12-27T01:29:17.434Z,6.5
2018-12-27T01:32:17.439Z,6.5
2018-12-27T01:35:17.181Z,6.2
2018-12-27T01:38:17.100Z,6.4
2018-12-27T01:41:17.055Z,6.3
2018-12-27T01:44:17.099Z,6.5
2018-12-27T01:47:17.226Z,6.2
2018-12-27T01:50:17.225Z,6.7
2018-12-27T01:53:17.241Z,6.4
2018-12-27T01:56:17.084Z,6.1
2018-12-27T01:59:17.329Z,6
2018-12-27T02:02:17.188Z,6.5
2018-12-27T02:05:17.494Z,6.2
2018-12-27T02:08:17.515Z,6.2
2018-12-27T02:11:17.630Z,6.5
2018-12-27T02:14:17.787Z,6.6
2018-12-27T02:17:17.059Z,6.4
2018-12-27T02:20:17.487Z,6.4
2018-12-27T02:23:17.596Z,6.3
2018-12-27T02:26:16.988Z,6.3
2018-12-27T02:29:17.464Z,6.3
2018-12-27T02:32:17.122Z,6.3
2018-12-27T02:35:17.042Z,6.6
2018-12-27T02:38:24.076Z,6.6
2018-12-27T02:41:24.074Z,6.6
2018-12-27T02:44:23.893Z,6.3
2018-12-27T02:47:24.424Z,6.5
2018-12-27T02:50:24.025Z,6.2
2018-12-27T02:53:24.319Z,6.1
2018-12-27T02:56:23.902Z,6.6
2018-12-27T02:59:24.191Z,6.7
2018-12-27T03:02:23.904Z,6.5
2018-12-27T03:05:23.929Z,6.4
2018-12-27T03:08:23.909Z,6.5
2018-12-27T03:11:23.884Z,6.5
2018-12-27T03:14:23.973Z,6.4
2018-12-27T03:17:23.880Z,6.6
2018-12-27T03:20:23.842Z,6.4
2018-12-27T03:23:24.170Z,6.3
2018-12-27T03:26:24.029Z,7.1
2018-12-27T03:29:24.085Z,6.5
2018-12-27T03:32:23.980Z,6.6
2018-12-27T03:35:24.044Z,6.6
2018-12-27T03:38:23.906Z,6.6
2018-12-27T03:41:24.130Z,6.7
2018-12-27T03:44:24.051Z,6.8
2018-12-27T03:47:24.823Z,6.6
2018-12-27T03:50:24.367Z,6.7
2018-12-27T03:53:23.885Z,7.1
2018-12-27T03:56:23.990Z,6.8
2018-12-27T03:59:23.885Z,6.8
2018-12-27T04:02:24.137Z,7.1
2018-12-27T04:05:23.888Z,6.9
2018-12-27T04:08:24.220Z,7.1
2018-12-27T04:11:24.408Z,7.6
2018-12-27T04:14:24.843Z,7
2018-12-27T04:17:24.253Z,7.1
2018-12-27T04:20:24.254Z,8
2018-12-27T04:23:24.319Z,7.5
2018-12-27T04:26:24.006Z,7.5
2018-12-27T04:29:23.875Z,6.9
2018-12-27T04:32:23.833Z,7.6
2018-12-27T04:35:24.112Z,7.8
2018-12-27T04:38:23.982Z,8
2018-12-27T04:41:24.192Z,7.9
2018-12-27T04:44:24.328Z,7.1
2018-12-27T04:47:24.187Z,7.2
2018-12-27T04:50:23.966Z,7.4
2018-12-27T04:53:24.112Z,7.4
2018-12-27T04:56:23.826Z,6.9
2018-12-27T04:59:24.002Z,6.9
2018-12-27T05:02:24.044Z,6.9
2018-12-27T05:05:24.389Z,7
2018-12-27T05:08:24.233Z,7
2018-12-27T05:11:23.927Z,7.1
2018-12-27T05:14:23.925Z,6.9
2018-12-27T05:17:24.443Z,6.7
2018-12-27T05:20:24.000Z,6.3
2018-12-27T05:23:23.906Z,6.6
2018-12-27T05:26:23.823Z,6.3
2018-12-27T05:29:23.899Z,6.3
2018-12-27T05:32:23.959Z,6.1
2018-12-27T05:35:23.922Z,6.5
2018-12-27T05:38:24.129Z,6.2
2018-12-27T05:41:24.347Z,6.4
2018-12-27T05:44:23.970Z,6
2018-12-27T05:47:23.832Z,6.1
2018-12-27T05:50:24.115Z,6.1
2018-12-27T05:53:24.119Z,6.3
2018-12-27T05:56:23.809Z,6
2018-12-27T05:59:24.064Z,6.8
2018-12-27T06:02:23.985Z,5.9
2018-12-27T06:05:24.321Z,5.9
2018-12-27T06:08:23.813Z,6
2018-12-27T06:11:24.720Z,6
2018-12-27T06:14:24.054Z,6
2018-12-27T06:17:24.086Z,5.7
2018-12-27T06:20:23.828Z,6.4
2018-12-27T06:23:23.910Z,6
2018-12-27T06:26:24.063Z,6.2
2018-12-27T06:29:23.940Z,5.9
2018-12-27T06:32:23.846Z,5.9
2018-12-27T06:35:23.781Z,6.2
2018-12-27T06:38:23.949Z,6
2018-12-27T06:41:23.961Z,5.6
2018-12-27T06:44:23.796Z,6.2
2018-12-27T06:47:23.966Z,6.2
2018-12-27T06:50:23.943Z,6.1
2018-12-27T06:53:23.795Z,5.7
2018-12-27T06:56:24.034Z,6.3
2018-12-27T06:59:24.007Z,5.8
2018-12-27T07:02:23.781Z,6.1
2018-12-27T07:05:23.868Z,6
2018-12-27T07:08:24.263Z,6.2
2018-12-27T07:11:23.757Z,6.3
2018-12-27T07:14:24.174Z,5.9
2018-12-27T07:17:23.901Z,6.2
2018-12-27T07:20:23.812Z,6
2018-12-27T07:23:23.785Z,6.3
2018-12-27T07:26:23.782Z,6
2018-12-27T07:29:24.285Z,6
2018-12-27T07:32:23.899Z,6
2018-12-27T07:35:24.069Z,6
2018-12-27T07:38:23.888Z,6.1
2018-12-27T07:41:24.007Z,6.4
2018-12-27T07:44:24.120Z,6
2018-12-27T07:47:24.213Z,5.8
2018-12-27T07:50:23.961Z,6.1
2018-12-27T07:53:23.935Z,6.1
2018-12-27T07:56:23.655Z,6.2
2018-12-27T07:59:23.849Z,5.9
2018-12-27T08:02:24.697Z,5.9
2018-12-27T08:05:23.816Z,6.1
2018-12-27T08:08:23.774Z,5.9
2018-12-27T08:11:23.897Z,5.7
2018-12-27T08:14:24.302Z,5.9
2018-12-27T08:17:23.851Z,5.9
2018-12-27T08:20:23.886Z,6.1
2018-12-27T08:23:23.974Z,5.8
2018-12-27T08:26:23.841Z,5.5
2018-12-27T08:29:24.037Z,5.7
2018-12-27T08:32:23.757Z,5.9
2018-12-27T08:35:24.046Z,5.7
2018-12-27T08:38:23.754Z,5.8
2018-12-27T08:41:24.072Z,5.7
2018-12-27T08:44:24.137Z,6
2018-12-27T08:47:23.744Z,5.8
2018-12-27T08:50:23.878Z,8.8
2018-12-27T08:53:23.874Z,7.7
2018-12-27T08:56:24.089Z,7.1
2018-12-27T08:59:24.029Z,6.7
2018-12-27T09:02:23.889Z,6
2018-12-27T09:05:24.109Z,6.2
2018-12-27T09:08:23.916Z,6.5
2018-12-27T09:11:23.764Z,5.9
2018-12-27T09:14:24.000Z,6.1
2018-12-27T09:17:24.346Z,5.7
2018-12-27T09:20:23.930Z,6.3
2018-12-27T09:23:24.091Z,6.1
2018-12-27T09:26:24.464Z,5.7
2018-12-27T09:29:23.931Z,5.5
2018-12-27T09:32:24.168Z,5.9
2018-12-27T09:35:26.899Z,5.8
2018-12-27T09:38:24.310Z,5.7
2018-12-27T09:41:23.734Z,6.4
2018-12-27T09:44:23.825Z,7
2018-12-27T09:47:23.775Z,7.4
2018-12-27T09:50:23.858Z,7.5
2018-12-27T09:53:23.735Z,6.8
2018-12-27T09:56:23.946Z,10.1
2018-12-27T09:59:23.866Z,8
2018-12-27T10:02:23.715Z,8.6
2018-12-27T10:05:23.850Z,6.7
2018-12-27T10:08:23.928Z,7
2018-12-27T10:11:24.215Z,20.6
2018-12-27T10:14:23.755Z,10.7
2018-12-27T10:17:23.861Z,11.1
2018-12-27T10:20:23.887Z,7.3
2018-12-27T10:23:24.055Z,15.5
2018-12-27T10:26:24.027Z,10.8
2018-12-27T10:29:23.958Z,10.3
2018-12-27T10:36:15.970Z,11.3
2018-12-27T10:39:16.324Z,7
2018-12-27T10:42:16.666Z,9.1
2018-12-27T10:45:15.926Z,9.4
2018-12-27T10:48:16.413Z,9.3
2018-12-27T10:51:16.071Z,8.9
2018-12-27T10:54:15.825Z,7.2
2018-12-27T10:57:15.964Z,6.4
2018-12-27T11:00:16.194Z,6.3
2018-12-27T11:03:16.090Z,8.7
2018-12-27T11:06:15.752Z,6.4
2018-12-27T11:09:15.765Z,7.3
2018-12-27T11:12:16.003Z,6.4
2018-12-27T11:15:16.115Z,5.3
2018-12-27T11:25:16.007Z,6.6
2018-12-27T11:36:40.786Z,7.5
2018-12-27T11:42:37.147Z,5.3
2018-12-27T11:45:36.673Z,5.7
2018-12-27T11:54:06.950Z,5.8
2018-12-27T11:57:07.018Z,6
2018-12-27T12:00:07.128Z,5.9
2018-12-27T12:03:07.175Z,5.8
2018-12-27T12:06:07.304Z,5.1
2018-12-27T12:09:07.172Z,5.3
2018-12-27T12:12:07.231Z,5.1
2018-12-27T12:15:07.610Z,5.2
2018-12-27T12:18:06.712Z,6
2018-12-27T12:21:07.401Z,6
2018-12-27T12:24:06.923Z,5.4
2018-12-27T12:27:06.859Z,7.1
2018-12-27T12:30:06.608Z,4.8
2018-12-27T12:33:07.178Z,4.9
2018-12-27T12:36:11.430Z,5.9
2018-12-27T12:39:06.982Z,5.3
2018-12-27T12:42:06.935Z,6.9
2018-12-27T12:45:06.683Z,9.3
2018-12-27T12:48:06.927Z,7.2
2018-12-27T12:51:06.982Z,6
2018-12-27T12:54:07.009Z,5.5
2018-12-27T12:57:07.024Z,7.3
2018-12-27T13:00:06.726Z,7.7
2018-12-27T13:03:07.289Z,5.2
2018-12-27T13:06:07.186Z,5
2018-12-27T13:09:06.844Z,5.6
2018-12-27T13:12:07.594Z,5.4
2018-12-27T13:15:07.070Z,5.3
2018-12-27T13:18:06.761Z,5.6
2018-12-27T13:21:07.084Z,5.2
2018-12-27T13:24:06.750Z,5.1
2018-12-27T13:27:06.818Z,5.8
2018-12-27T13:30:07.018Z,5.9
2018-12-27T13:33:07.044Z,5.1
2018-12-27T13:36:07.859Z,5
2018-12-27T13:39:07.211Z,5.1
2018-12-27T13:42:07.188Z,5.4
2018-12-27T13:45:06.910Z,5.7
2018-12-27T13:48:07.340Z,5.6
2018-12-27T13:51:06.958Z,5.6
2018-12-27T13:54:07.735Z,4.9
2018-12-27T13:57:07.348Z,5.8
2018-12-27T14:00:06.820Z,5.5
2018-12-27T14:03:06.959Z,5.2
2018-12-27T14:06:06.786Z,5.1
2018-12-27T14:09:07.405Z,5.2
2018-12-27T14:12:07.492Z,5.5
2018-12-27T14:15:06.989Z,5.7
2018-12-27T14:18:06.827Z,5.7
2018-12-27T14:21:06.826Z,5.3
2018-12-27T14:24:06.882Z,5.5
2018-12-27T14:27:07.232Z,7.6
2018-12-27T14:30:06.798Z,6.4
2018-12-27T14:33:06.877Z,7.3
2018-12-27T14:36:07.332Z,6.6
2018-12-27T14:39:06.963Z,6.2
2018-12-27T14:42:07.478Z,7.5
2018-12-27T14:45:06.963Z,5.6
2018-12-27T14:48:07.173Z,5.4
2018-12-27T14:51:07.566Z,6.3
2018-12-27T14:54:06.955Z,6.7
2018-12-27T14:57:06.907Z,6.2
2018-12-27T15:00:06.893Z,6.5
2018-12-27T15:03:07.088Z,5.5
2018-12-27T15:06:07.157Z,5.6
2018-12-27T15:09:06.890Z,6.2
2018-12-27T15:12:07.086Z,7.1
2018-12-27T15:15:07.045Z,6
2018-12-27T15:18:06.948Z,5.7
2018-12-27T15:21:07.247Z,10.9
2018-12-27T15:24:07.110Z,7.6
2018-12-27T15:27:06.984Z,9.5
2018-12-27T15:30:07.237Z,10.1
2018-12-27T15:33:06.827Z,8.1
2018-12-27T15:36:06.709Z,7.6
2018-12-27T15:39:07.284Z,8.1
2018-12-27T15:42:06.974Z,10
2018-12-27T15:45:06.650Z,6.7
2018-12-27T15:48:07.129Z,6.4
2018-12-27T15:51:07.265Z,7.4
2018-12-27T15:54:06.871Z,6.8
2018-12-27T15:57:08.105Z,6.5
2018-12-27T16:00:07.022Z,6.3
2018-12-27T16:03:07.042Z,6.5
2018-12-27T16:06:06.870Z,6.8
2018-12-27T16:09:06.842Z,6.5
2018-12-27T16:12:06.923Z,7.5
2018-12-27T16:15:06.947Z,6.8
2018-12-27T16:18:06.839Z,6.4
2018-12-27T16:21:06.985Z,7.1
2018-12-27T16:24:07.065Z,7.1
2018-12-27T16:27:08.807Z,9.4
2018-12-27T16:30:06.882Z,7.5
2018-12-27T16:33:06.915Z,6.5
2018-12-27T16:39:28.322Z,6.7
2018-12-27T16:42:28.878Z,9.9
2018-12-27T16:45:28.481Z,8.4
2018-12-27T16:48:28.562Z,8.3
2018-12-27T16:51:28.627Z,14.1
2018-12-27T16:54:28.081Z,12.4
2018-12-27T17:31:13.363Z,8.7
2018-12-27T17:34:13.456Z,9.6
2018-12-27T17:37:13.106Z,8.7
2018-12-27T17:40:13.318Z,9.7
2018-12-27T17:43:13.346Z,8.9
2018-12-27T17:46:13.258Z,10
2018-12-27T17:54:24.877Z,10.6
2018-12-27T17:57:24.813Z,10.3
2018-12-27T18:00:24.726Z,8.4
2018-12-27T18:05:00.941Z,8.7
2018-12-27T18:14:02.499Z,8.4
2018-12-27T18:17:01.624Z,9.2
2018-12-27T18:25:05.475Z,8.3
2018-12-27T18:28:05.944Z,9.9
2018-12-27T18:31:05.440Z,10.6
2018-12-27T18:34:05.264Z,8.3
2018-12-27T18:37:04.983Z,7.6
2018-12-27T18:40:05.725Z,9
2018-12-27T18:43:05.254Z,8.4
2018-12-27T18:50:01.438Z,11.1
2018-12-27T18:53:01.608Z,14.1
2018-12-27T18:56:01.054Z,10.7
2018-12-27T18:59:01.726Z,10.6
2018-12-27T19:02:01.889Z,10.1
2018-12-27T19:05:01.282Z,11.8
2018-12-27T19:08:01.032Z,9.6
2018-12-27T19:11:01.187Z,11.5
2018-12-27T19:14:01.153Z,10.7
2018-12-27T19:18:44.647Z,10.4
2018-12-27T19:21:45.203Z,9.6
2018-12-27T19:24:44.901Z,10.8
2018-12-27T19:27:45.120Z,10.9
2018-12-27T19:30:44.855Z,13.3
2018-12-27T19:33:45.317Z,12.9
2018-12-27T19:36:45.262Z,12.2
2018-12-27T19:39:45.068Z,9.6
2018-12-27T19:42:45.076Z,10.6
2018-12-27T19:45:45.472Z,12.8
2018-12-27T19:48:45.591Z,11
2018-12-27T19:51:45.176Z,10.1
2018-12-27T19:54:45.258Z,10.7
2018-12-27T19:57:45.251Z,11.1
2018-12-27T20:00:44.831Z,9.5
2018-12-27T20:03:44.970Z,9.2
2018-12-27T20:06:45.549Z,9.2
2018-12-27T20:09:44.952Z,9.5
2018-12-27T20:12:45.180Z,11.2
2018-12-27T20:15:45.334Z,10.7
2018-12-27T20:18:45.303Z,9.1
2018-12-27T20:21:45.008Z,9.6
2018-12-27T20:24:45.142Z,9.4
2018-12-27T20:27:44.972Z,9.6
2018-12-27T20:30:45.164Z,8.6
2018-12-27T20:33:45.064Z,9.3
2018-12-27T20:36:45.064Z,10.4
2018-12-27T20:41:47.667Z,9.9
2018-12-27T20:44:47.944Z,10.9
2018-12-27T20:47:47.967Z,10.3
2018-12-27T20:50:46.853Z,10.4
2018-12-27T20:53:47.077Z,11.3
2018-12-27T20:56:47.154Z,11.3
2018-12-27T20:59:47.084Z,11
2018-12-27T21:02:47.082Z,10.2
2018-12-27T21:05:47.191Z,12.3
2018-12-27T21:08:47.187Z,12.4
2018-12-27T21:11:47.081Z,11
2018-12-27T21:14:46.950Z,11.4
2018-12-27T21:17:47.192Z,11.7
2018-12-27T21:20:47.273Z,10.3
2018-12-27T21:25:40.243Z,11.4
2018-12-27T21:28:40.600Z,11.4
2018-12-27T21:31:40.329Z,11
2018-12-27T21:34:41.287Z,12.2
2018-12-27T21:37:40.860Z,10.7
2018-12-27T21:40:40.872Z,10.7
2018-12-27T21:43:40.325Z,11
2018-12-27T21:46:41.094Z,10.3
2018-12-27T21:49:40.471Z,10.7
2018-12-27T21:52:40.434Z,9.9
2018-12-27T21:55:40.789Z,11
2018-12-27T21:58:40.337Z,10.2
2018-12-27T22:01:40.634Z,9.7
2018-12-27T22:04:40.910Z,10.2
2018-12-27T22:07:40.456Z,10.2
2018-12-27T22:10:41.553Z,9.8
2018-12-27T22:13:40.504Z,9.9
2018-12-27T22:16:40.421Z,9.5
2018-12-27T22:19:41.043Z,10.7
2018-12-27T22:22:40.475Z,9.8
2018-12-27T22:25:40.329Z,9.6
2018-12-27T22:28:40.217Z,9.9
2018-12-27T22:31:40.491Z,9.8
2018-12-27T22:34:40.357Z,9.8
2018-12-27T22:37:40.433Z,9.5
2018-12-27T22:40:40.599Z,10.3
2018-12-27T22:43:40.297Z,9.4
2018-12-27T22:46:40.312Z,9.4
2018-12-27T22:49:40.655Z,9.4
2018-12-27T22:52:40.906Z,9.4
2018-12-27T22:55:40.824Z,9.7
2018-12-27T22:58:40.193Z,9.7
2018-12-27T23:01:40.993Z,9.6
2018-12-27T23:04:40.385Z,9.4
2018-12-27T23:07:40.366Z,8.9
2018-12-27T23:10:40.837Z,9
2018-12-27T23:13:40.691Z,9.2
2018-12-27T23:16:40.218Z,9.2
2018-12-27T23:19:40.391Z,9
2018-12-27T23:22:40.745Z,9
2018-12-27T23:25:40.831Z,9.5
2018-12-27T23:28:40.353Z,9.1
2018-12-27T23:31:40.182Z,9.4
2018-12-27T23:34:40.669Z,9.1
2018-12-27T23:37:40.397Z,9.2
2018-12-27T23:40:40.325Z,9.4
2018-12-27T23:43:40.884Z,8.5
2018-12-27T23:46:40.212Z,10
2018-12-27T23:49:40.302Z,8.5
2018-12-27T23:52:40.272Z,9.1
2018-12-27T23:55:40.953Z,9.3
2018-12-27T23:58:40.299Z,8.8
